createdAt,value
2023-01-26T00:03:41.279Z,14.10
2023-01-26T00:08:49.382Z,11.82
2023-01-26T00:13:52.250Z,17.07
2023-01-26T00:18:55.332Z,14.18
2023-01-26T00:23:58.725Z,8.00
2023-01-26T00:29:01.836Z,13.07
2023-01-26T00:34:04.668Z,16.40
2023-01-26T00:39:07.335Z,11.13
2023-01-26T00:44:10.966Z,11.95
2023-01-26T00:49:13.727Z,11.57
2023-01-26T00:54:16.496Z,7.80
2023-01-26T00:59:19.306Z,9.10
2023-01-26T01:04:22.093Z,8.37
2023-01-26T01:09:25.458Z,12.05
2023-01-26T01:14:28.178Z,14.27
2023-01-26T01:19:31.030Z,14.83
2023-01-26T01:24:35.613Z,9.18
2023-01-26T01:29:38.468Z,11.87
2023-01-26T01:34:41.349Z,12.52
2023-01-26T01:39:44.204Z,14.63
2023-01-26T01:45:07.579Z,13.23
2023-01-26T01:50:15.746Z,12.85
2023-01-26T01:55:18.679Z,12.07
2023-01-26T02:00:24.145Z,9.25
2023-01-26T02:05:32.705Z,11.23
2023-01-26T02:10:36.498Z,10.80
2023-01-26T02:15:40.442Z,12.00
2023-01-26T02:20:52.547Z,13.57
2023-01-26T02:25:57.447Z,13.63
2023-01-26T02:31:01.020Z,13.35
2023-01-26T02:36:05.559Z,15.83
2023-01-26T02:41:12.878Z,14.25
2023-01-26T02:46:15.841Z,15.10
2023-01-26T02:51:19.106Z,19.98
2023-01-26T02:56:23.690Z,10.68
2023-01-26T03:01:26.858Z,16.67
2023-01-26T03:06:29.702Z,14.38
2023-01-26T03:11:42.420Z,15.57
2023-01-26T03:16:45.503Z,16.02
2023-01-26T03:22:06.558Z,14.18
2023-01-26T03:27:28.965Z,14.47
2023-01-26T03:32:37.642Z,9.32
2023-01-26T03:37:44.098Z,11.87
2023-01-26T03:43:12.351Z,11.85
2023-01-26T03:48:34.281Z,14.88
2023-01-26T03:53:57.397Z,16.20
2023-01-26T03:59:13.154Z,16.17
2023-01-26T04:04:35.341Z,13.67
2023-01-26T04:09:42.197Z,12.40
2023-01-26T04:15:03.426Z,14.35
2023-01-26T04:20:26.889Z,8.43
2023-01-26T04:25:29.756Z,9.50
2023-01-26T04:30:33.822Z,14.83
2023-01-26T04:35:38.216Z,17.17
2023-01-26T04:40:41.241Z,13.38
2023-01-26T04:45:45.362Z,16.20
2023-01-26T04:50:57.238Z,14.45
2023-01-26T04:56:01.312Z,15.47
2023-01-26T05:01:05.481Z,13.40
2023-01-26T05:06:09.068Z,14.45
2023-01-26T05:11:12.199Z,19.17
2023-01-26T05:16:36.961Z,14.50
2023-01-26T05:22:02.242Z,19.50
2023-01-26T05:27:21.445Z,17.88
2023-01-26T05:32:31.430Z,13.15
2023-01-26T05:37:34.657Z,15.27
2023-01-26T05:42:37.454Z,16.48
2023-01-26T05:47:50.194Z,13.63
2023-01-26T05:52:53.103Z,17.38
2023-01-26T05:57:56.227Z,13.43
2023-01-26T06:02:59.261Z,12.93
2023-01-26T06:08:02.041Z,13.30
2023-01-26T06:13:12.659Z,17.97
2023-01-26T06:18:27.585Z,19.10
2023-01-26T06:23:32.345Z,16.17
2023-01-26T06:28:37.680Z,12.13
2023-01-26T06:33:40.624Z,14.77
2023-01-26T06:38:49.568Z,19.40
2023-01-26T06:43:53.117Z,17.25
2023-01-26T06:48:56.261Z,14.77
2023-01-26T06:53:59.486Z,18.97
2023-01-26T06:59:11.041Z,15.93
2023-01-26T07:04:50.701Z,19.77
2023-01-26T07:09:54.014Z,18.25
2023-01-26T07:14:56.637Z,16.40
2023-01-26T07:19:59.467Z,13.57
2023-01-26T07:25:02.297Z,13.85
2023-01-26T07:30:05.704Z,10.73
2023-01-26T07:35:09.137Z,12.68
2023-01-26T07:40:12.718Z,15.15
2023-01-26T07:45:18.023Z,17.93
2023-01-26T07:50:21.835Z,16.52
2023-01-26T07:55:26.595Z,8.60
2023-01-26T08:00:29.513Z,10.73
2023-01-26T08:05:33.031Z,18.85
2023-01-26T08:10:36.126Z,19.37
2023-01-26T08:15:38.942Z,17.27
2023-01-26T08:20:41.791Z,23.13
2023-01-26T08:25:44.593Z,16.25
2023-01-26T08:30:47.641Z,18.58
2023-01-26T08:35:50.588Z,14.97
2023-01-26T08:40:54.788Z,20.25
2023-01-26T08:45:58.188Z,17.20
2023-01-26T08:51:03.088Z,20.73
2023-01-26T08:56:08.262Z,11.82
2023-01-26T09:01:16.953Z,16.17
2023-01-26T09:06:20.349Z,12.90
2023-01-26T09:11:23.238Z,17.67
2023-01-26T09:16:26.098Z,19.20
2023-01-26T09:21:29.447Z,15.02
2023-01-26T09:26:32.463Z,8.67
2023-01-26T09:31:35.319Z,10.73
2023-01-26T09:36:40.590Z,15.17
2023-01-26T09:41:50.346Z,7.72
2023-01-26T09:47:15.930Z,13.50
2023-01-26T09:52:28.503Z,13.93
2023-01-26T09:57:50.673Z,13.88
2023-01-26T10:02:53.420Z,17.40
2023-01-26T10:07:56.797Z,15.10
2023-01-26T10:13:00.460Z,17.30
2023-01-26T10:18:07.407Z,13.63
2023-01-26T10:23:22.145Z,19.88
2023-01-26T10:28:30.687Z,16.10
2023-01-26T10:33:36.186Z,15.38
2023-01-26T10:38:41.961Z,18.88
2023-01-26T10:43:53.341Z,10.23
2023-01-26T10:48:59.806Z,15.93
2023-01-26T10:54:23.245Z,13.07
2023-01-26T10:59:39.596Z,13.20
2023-01-26T11:05:01.610Z,5.75
2023-01-26T11:10:27.604Z,12.57
2023-01-26T11:15:31.037Z,13.48
2023-01-26T11:20:59.422Z,17.53
2023-01-26T11:26:31.216Z,17.58
2023-01-26T11:32:26.921Z,33.95
2023-01-26T11:37:46.650Z,21.97
2023-01-26T11:43:12.526Z,13.43
2023-01-26T11:48:50.645Z,16.77
2023-01-26T11:54:25.680Z,12.70
2023-01-26T11:59:39.322Z,18.40
2023-01-26T12:04:47.168Z,13.97
2023-01-26T12:09:53.165Z,17.33
2023-01-26T12:15:14.315Z,15.60
2023-01-26T12:20:35.055Z,18.65
2023-01-26T12:26:03.976Z,16.98
2023-01-26T12:31:22.575Z,14.40
2023-01-26T12:36:43.996Z,12.23
2023-01-26T12:42:07.048Z,16.07
2023-01-26T12:47:25.130Z,14.98
2023-01-26T12:52:43.446Z,16.35
2023-01-26T12:58:02.148Z,13.17
2023-01-26T13:03:19.043Z,8.43
2023-01-26T13:08:30.924Z,10.53
2023-01-26T13:13:52.199Z,16.63
2023-01-26T13:18:56.837Z,21.85
2023-01-26T13:23:59.618Z,15.37
2023-01-26T13:29:36.455Z,22.35
2023-01-26T13:34:46.800Z,37.30
2023-01-26T13:39:57.318Z,20.95
2023-01-26T13:45:04.696Z,21.02
2023-01-26T13:50:30.244Z,20.50
2023-01-26T13:55:34.420Z,18.52
2023-01-26T14:00:38.080Z,26.33
2023-01-26T14:05:41.079Z,24.40
2023-01-26T14:10:44.258Z,15.98
2023-01-26T14:15:57.765Z,36.20
2023-01-26T14:21:14.702Z,21.23
2023-01-26T14:26:30.439Z,17.53
2023-01-26T14:31:33.418Z,26.17
2023-01-26T14:36:39.589Z,42.38
2023-01-26T14:41:42.784Z,21.47
2023-01-26T14:47:03.546Z,25.33
2023-01-26T14:52:06.357Z,10.07
2023-01-26T14:57:11.943Z,24.23
2023-01-26T15:02:23.149Z,24.77
2023-01-26T15:07:45.519Z,12.60
2023-01-26T15:12:55.799Z,23.45
2023-01-26T15:18:13.789Z,21.90
2023-01-26T15:23:27.398Z,20.35
2023-01-26T15:28:30.237Z,22.15
2023-01-26T15:33:54.204Z,29.17
2023-01-26T15:39:11.217Z,15.52
2023-01-26T15:44:19.317Z,31.83
2023-01-26T15:49:23.308Z,20.95
2023-01-26T15:54:26.197Z,23.05
2023-01-26T15:59:28.960Z,27.80
2023-01-26T16:04:31.758Z,22.67
2023-01-26T16:09:34.817Z,20.87
2023-01-26T16:14:37.606Z,15.98
2023-01-26T16:19:40.692Z,16.38
2023-01-26T16:24:43.588Z,25.00
2023-01-26T16:29:46.490Z,27.63
2023-01-26T16:34:49.562Z,27.63
2023-01-26T16:39:52.481Z,22.92
2023-01-26T16:44:55.621Z,22.80
2023-01-26T16:49:59.057Z,39.90
2023-01-26T16:55:02.066Z,18.85
2023-01-26T17:00:08.136Z,21.60
2023-01-26T17:05:19.777Z,30.13
2023-01-26T17:10:25.365Z,25.65
2023-01-26T17:15:31.563Z,33.43
2023-01-26T17:20:34.464Z,32.92
2023-01-26T17:25:37.398Z,22.07
2023-01-26T17:30:40.235Z,25.70
2023-01-26T17:35:43.228Z,27.48
2023-01-26T17:40:54.228Z,28.33
2023-01-26T17:46:07.775Z,37.60
2023-01-26T17:51:19.239Z,31.13
2023-01-26T17:56:22.691Z,31.63
2023-01-26T18:01:27.248Z,20.73
2023-01-26T18:06:30.733Z,26.07
2023-01-26T18:11:33.848Z,20.75
2023-01-26T18:16:36.864Z,26.80
2023-01-26T18:21:39.830Z,22.40
2023-01-26T18:26:42.769Z,23.13
2023-01-26T18:31:46.004Z,23.10
2023-01-26T18:36:48.938Z,23.88
2023-01-26T18:41:51.827Z,21.73
2023-01-26T18:46:54.728Z,31.88
2023-01-26T18:51:58.427Z,32.13
2023-01-26T18:57:01.578Z,30.20
2023-01-26T19:02:04.870Z,33.22
2023-01-26T19:07:10.054Z,19.13
2023-01-26T19:12:13.007Z,24.50
2023-01-26T19:17:15.901Z,37.85
2023-01-26T19:22:18.788Z,27.03
2023-01-26T19:27:21.998Z,32.20
2023-01-26T19:32:25.065Z,25.17
2023-01-26T19:37:27.813Z,32.05
2023-01-26T19:42:30.546Z,20.75
2023-01-26T19:47:33.266Z,29.57
2023-01-26T19:52:36.327Z,26.02
2023-01-26T19:57:39.448Z,39.73
2023-01-26T20:02:42.682Z,34.70
2023-01-26T20:07:46.398Z,40.90
2023-01-26T20:12:49.511Z,38.17
2023-01-26T20:17:52.391Z,40.55
2023-01-26T20:22:55.413Z,25.63
2023-01-26T20:27:58.544Z,26.65
2023-01-26T20:33:02.518Z,29.38
2023-01-26T20:38:05.522Z,23.27
2023-01-26T20:43:08.577Z,23.20
2023-01-26T20:48:12.093Z,29.67
2023-01-26T20:53:15.620Z,28.60
2023-01-26T20:58:18.731Z,26.75
2023-01-26T21:03:21.725Z,25.47
2023-01-26T21:08:24.907Z,44.78
2023-01-26T21:13:28.308Z,33.77
2023-01-26T21:18:31.586Z,25.50
2023-01-26T21:23:35.464Z,29.63
2023-01-26T21:28:38.652Z,18.07
2023-01-26T21:33:48.209Z,36.97
2023-01-26T21:38:52.674Z,27.17
2023-01-26T21:44:00.258Z,30.25
2023-01-26T21:49:04.120Z,31.02
2023-01-26T21:54:07.534Z,33.27
2023-01-26T21:59:14.865Z,32.90
2023-01-26T22:04:22.473Z,36.67
2023-01-26T22:09:25.438Z,26.83
2023-01-26T22:14:28.161Z,30.98
2023-01-26T22:19:30.945Z,28.20
2023-01-26T22:24:34.069Z,23.30
2023-01-26T22:29:36.933Z,22.67
2023-01-26T22:34:39.615Z,22.98
2023-01-26T22:39:43.401Z,29.08
2023-01-26T22:44:46.081Z,25.07
2023-01-26T22:49:48.920Z,23.90
2023-01-26T22:54:51.953Z,27.97
2023-01-26T22:59:54.671Z,24.80
2023-01-26T23:04:57.487Z,29.80
2023-01-26T23:10:00.569Z,25.10
2023-01-26T23:15:03.732Z,23.63
2023-01-26T23:20:07.185Z,24.77
2023-01-26T23:25:28.726Z,28.20
2023-01-26T23:30:31.651Z,29.02
2023-01-26T23:35:34.355Z,30.17
2023-01-26T23:40:38.045Z,21.60
2023-01-26T23:45:41.061Z,29.70
2023-01-26T23:50:43.850Z,27.13
2023-01-26T23:55:47.484Z,25.42
